createdAt,value
2023-04-10T00:02:18.725Z,75.89
2023-04-10T00:08:38.604Z,76.38
2023-04-10T00:15:01.671Z,76.61
2023-04-10T00:21:21.614Z,76.79
2023-04-10T00:27:44.607Z,77.19
2023-04-10T00:34:04.630Z,77.29
2023-04-10T00:40:27.632Z,77.32
2023-04-10T00:46:47.618Z,77.03
2023-04-10T00:53:10.661Z,77.04
2023-04-10T00:59:30.568Z,77.09
2023-04-10T01:05:53.664Z,76.84
2023-04-10T01:12:13.617Z,76.86
2023-04-10T01:18:36.587Z,77.04
2023-04-10T01:24:56.669Z,77.45
2023-04-10T01:31:19.787Z,77.5
2023-04-10T01:37:39.599Z,77.59
2023-04-10T01:44:02.599Z,77.72
2023-04-10T01:50:22.654Z,77.61
2023-04-10T01:56:45.615Z,77.42
2023-04-10T02:03:05.741Z,77.48
2023-04-10T02:09:28.696Z,77.59
2023-04-10T02:15:48.631Z,77.18
2023-04-10T02:22:11.642Z,76.91
2023-04-10T02:28:31.625Z,76.9
2023-04-10T02:34:54.628Z,76.92
2023-04-10T02:41:14.616Z,77.22
2023-04-10T02:47:37.743Z,77.13
2023-04-10T02:53:57.654Z,77.1
2023-04-10T03:00:20.683Z,76.75
2023-04-10T03:06:40.624Z,76.61
2023-04-10T03:30:22.605Z,76.74
2023-04-10T03:36:45.590Z,76.42
2023-04-10T03:43:05.625Z,76.43
2023-04-10T03:49:28.637Z,76.2
2023-04-10T03:55:48.635Z,76.13
2023-04-10T04:02:11.717Z,76.55
2023-04-10T04:08:31.679Z,76.8
2023-04-10T04:14:54.623Z,76.88
2023-04-10T04:21:14.619Z,77.28
2023-04-10T04:27:37.683Z,77.56
2023-04-10T04:33:57.727Z,77.52
2023-04-10T04:40:20.639Z,77.25
2023-04-10T04:46:41.928Z,77.07
2023-04-10T04:53:04.291Z,76.86
2023-04-10T04:59:23.650Z,77.26
2023-04-10T05:05:46.614Z,76.7
2023-04-10T05:12:06.586Z,76.76
2023-04-10T05:18:29.606Z,76.85
2023-04-10T05:24:49.705Z,76.59
2023-04-10T05:31:12.742Z,76.4
2023-04-10T05:37:32.559Z,75.8
2023-04-10T05:43:55.685Z,75.65
2023-04-10T05:50:15.604Z,75.3
2023-04-10T05:56:38.590Z,74.81
2023-04-10T06:02:58.742Z,74.3
2023-04-10T06:09:21.620Z,73.7
2023-04-10T06:15:41.640Z,72.83
2023-04-10T06:22:04.886Z,72.59
2023-04-10T06:28:24.703Z,71.63
2023-04-10T06:34:47.557Z,71.04
2023-04-10T06:41:07.635Z,70.51
2023-04-10T06:47:30.584Z,69.3
2023-04-10T06:53:50.636Z,68.17
2023-04-10T07:00:13.684Z,67.31
2023-04-10T07:06:33.608Z,67.21
2023-04-10T07:12:56.646Z,66.36
2023-04-10T07:19:16.618Z,65.25
2023-04-10T07:25:39.597Z,64.7
2023-04-10T07:31:59.678Z,61.38
2023-04-10T07:38:22.594Z,59.22
2023-04-10T07:44:42.589Z,57.47
2023-04-10T07:51:05.611Z,56.62
2023-04-10T07:57:25.607Z,54.19
2023-04-10T08:03:48.799Z,54.53
2023-04-10T08:10:08.574Z,54.52
2023-04-10T08:16:31.654Z,53.72
2023-04-10T08:22:51.583Z,51.99
2023-04-10T08:29:14.579Z,52.02
2023-04-10T08:52:21.205Z,47.57
2023-04-10T08:58:40.569Z,47.52
2023-04-10T09:05:03.632Z,45.84
2023-04-10T09:11:23.627Z,46.68
2023-04-10T09:17:46.587Z,45.8
2023-04-10T09:24:06.578Z,45.88
2023-04-10T09:30:29.604Z,45.42
2023-04-10T09:36:49.603Z,47.01
2023-04-10T09:43:12.593Z,45.97
2023-04-10T09:49:32.608Z,44.26
2023-04-10T09:55:55.591Z,43.14
2023-04-10T10:02:15.673Z,44.06
2023-04-10T10:08:38.601Z,42.82
2023-04-10T10:14:58.589Z,43.21
2023-04-10T10:21:21.585Z,41.08
2023-04-10T10:27:41.619Z,41.25
2023-04-10T10:34:04.581Z,42.42
2023-04-10T10:40:24.566Z,40.84
2023-04-10T10:46:47.613Z,39.11
2023-04-10T10:53:07.589Z,38.8
2023-04-10T10:59:30.594Z,37.48
2023-04-10T11:05:50.621Z,38.53
2023-04-10T11:12:13.614Z,37.6
2023-04-10T11:18:33.611Z,35.23
2023-04-10T11:24:56.602Z,36.47
2023-04-10T11:31:16.591Z,36.52
2023-04-10T11:37:39.590Z,35.48
2023-04-10T11:43:59.621Z,33.41
2023-04-10T11:50:22.598Z,33.55
2023-04-10T11:56:42.570Z,34.07
2023-04-10T12:03:05.795Z,36.43
2023-04-10T12:09:25.571Z,32.96
2023-04-10T12:15:48.593Z,34.32
2023-04-10T12:22:08.776Z,34.68
2023-04-10T12:28:31.583Z,35.99
2023-04-10T12:34:51.689Z,36.32
2023-04-10T12:41:14.608Z,33.21
2023-04-10T12:47:34.603Z,34.22
2023-04-10T12:53:57.629Z,34.46
2023-04-10T13:00:17.608Z,33.47
2023-04-10T13:06:40.604Z,32.77
2023-04-10T13:13:00.596Z,30.66
2023-04-10T13:19:23.595Z,29.68
2023-04-10T13:25:43.582Z,30.48
2023-04-10T13:32:06.575Z,32.11
2023-04-10T13:38:26.603Z,31.94
2023-04-10T13:44:49.569Z,33.43
2023-04-10T13:51:09.604Z,33.39
2023-04-10T13:57:32.629Z,34.48
2023-04-10T14:03:52.697Z,33.37
2023-04-10T14:10:15.595Z,34.94
2023-04-10T14:16:35.646Z,34.01
2023-04-10T14:38:47.627Z,33.01
2023-04-10T14:45:10.570Z,32.19
2023-04-10T14:51:30.602Z,32.27
2023-04-10T14:57:53.597Z,32.38
2023-04-10T15:04:13.672Z,31.1
2023-04-10T15:10:36.588Z,32.36
2023-04-10T15:16:56.624Z,29.16
2023-04-10T15:23:19.589Z,28.66
2023-04-10T15:29:39.567Z,29.25
2023-04-10T15:36:02.659Z,30.13
2023-04-10T15:42:22.598Z,31.25
2023-04-10T15:48:45.573Z,31.87
2023-04-10T15:55:05.727Z,32.02
2023-04-10T16:01:28.603Z,33.28
2023-04-10T16:07:48.578Z,34.06
2023-04-10T16:14:11.646Z,35.09
2023-04-10T16:20:31.565Z,35.08
2023-04-10T16:26:54.608Z,35.49
2023-04-10T16:33:14.586Z,35.99
2023-04-10T16:39:37.568Z,36.52
2023-04-10T16:45:57.602Z,36.61
2023-04-10T16:52:20.594Z,37.47
2023-04-10T16:58:40.596Z,38.38
2023-04-10T17:05:03.573Z,38.41
2023-04-10T17:11:23.598Z,39.34
2023-04-10T17:17:46.620Z,39.78
2023-04-10T17:24:06.568Z,40.5
2023-04-10T17:30:29.786Z,44.22
2023-04-10T17:36:49.580Z,45.63
2023-04-10T17:43:12.583Z,46.29
2023-04-10T17:49:32.667Z,47.46
2023-04-10T17:55:55.578Z,53.13
2023-04-10T18:02:15.602Z,51.87
2023-04-10T18:08:38.606Z,53.62
2023-04-10T18:14:58.563Z,50.53
2023-04-10T18:21:21.586Z,50.96
2023-04-10T18:27:42.389Z,49.72
2023-04-10T18:34:08.112Z,55.24
2023-04-10T18:40:24.618Z,58.51
2023-04-10T18:46:53.941Z,61.25
2023-04-10T18:53:07.643Z,62.93
2023-04-10T18:59:30.601Z,61.82
2023-04-10T19:05:50.636Z,63.55
2023-04-10T19:12:13.615Z,64.18
2023-04-10T19:18:33.578Z,66.48
2023-04-10T19:24:56.633Z,66.78
2023-04-10T19:31:16.636Z,69.02
2023-04-10T19:37:39.636Z,66.87
2023-04-10T19:43:59.651Z,68.21
2023-04-10T19:50:22.590Z,70.86
2023-04-10T19:56:42.574Z,70.14
2023-04-10T20:19:12.587Z,73.32
2023-04-10T20:25:35.584Z,75.53
2023-04-10T20:31:55.676Z,77.4
2023-04-10T20:38:18.585Z,76.97
2023-04-10T20:44:38.592Z,78.86
2023-04-10T20:51:01.680Z,80.39
2023-04-10T20:57:21.583Z,82.49
2023-04-10T21:03:44.700Z,82
2023-04-10T21:10:04.559Z,82.9
2023-04-10T21:16:27.614Z,83.63
2023-04-10T21:22:47.602Z,84.04
2023-04-10T21:29:10.587Z,84.38
2023-04-10T21:35:30.661Z,84.51
2023-04-10T21:41:53.569Z,84.24
2023-04-10T21:48:13.627Z,84.38
2023-04-10T21:54:36.672Z,84.08
2023-04-10T22:20:08.588Z,84.6
2023-04-10T22:26:28.603Z,85.72
2023-04-10T22:32:51.599Z,86.39
2023-04-10T22:39:11.621Z,86.24
2023-04-10T22:45:34.563Z,86.68
2023-04-10T22:51:54.604Z,86.79
2023-04-10T22:58:17.594Z,86.9
2023-04-10T23:04:37.618Z,86.85
2023-04-10T23:11:00.587Z,86.34
2023-04-10T23:17:20.636Z,86.51
2023-04-10T23:23:43.566Z,86.21
2023-04-10T23:30:03.620Z,85.96
2023-04-10T23:36:26.613Z,85.9
2023-04-10T23:42:46.612Z,85.98
2023-04-10T23:49:09.608Z,82.76
2023-04-10T23:55:29.609Z,81.55
